MUMZ/MZO METAR and TAF weather

Enter ICAO airport designator
Station Type Date Time Source
MUMZ METAR 2020/06/17 13:58 UTC NOAA

MUMZ 171358Z VRB02KT 9000 FEW020 SCT070 27/24 Q1017


Station Type Date Time Source
MUMZ Decoded METAR 2020/06/17 13:58 UTC NOAA

Manzanillo, Oriente, Cuba (MUMZ) 20-20N 077-07W 60M
Jun 17, 2020 - 09:58 AM EDT / 2020.06.17 1358 UTC
Wind: Variable at 2 MPH (2 KT):0
Visibility: 5 mile(s):0
Sky conditions: partly cloudy
Temperature: 80 F (27 C)
Dew Point: 75 F (24 C)
Relative Humidity: 83%
Pressure (altimeter): 30.03 in. Hg (1017 hPa)
ob: MUMZ 171358Z VRB02KT 9000 FEW020 SCT070 27/24 Q1017
cycle: 14

Station Type Date Time Source
MUMZ TAF 2021/06/28 18:03 UTC NOAA

MUMZ 281700Z 2818/2906 VRB03KT 9000 SCT020
TEMPO 2818/2823 5000 TSRA SCT018CB BKN020

Example: see airport list